Time;durP1;ratioP1;P1;durP2;ratioP2;P2;SDS_P1;SDS_P2;PMS_P1;PMS_P2;Temp;Humidity;BMP_temperature;BMP_pressure;BME280_temperature;BME280_humidity;BME280_pressure;Samples;Min_cycle;Max_cycle;Signal;HPM_P1;HPM_P2
2021/01/19 00:00:20;;;;;;;12.97;2.73;;;4.80;99.90;;;;;;3962442;30;20192;-94
2021/01/19 00:02:32;;;;;;;12.53;2.20;;;4.90;99.90;;;;;;3949690;30;20303;-93
2021/01/19 00:04:33;;;;;;;8.30;2.40;;;4.90;99.90;;;;;;3947915;30;20317;-95
2021/01/19 00:06:41;;;;;;;21.57;3.37;;;4.80;99.90;;;;;;3963216;30;20693;-95
2021/01/19 00:08:48;;;;;;;12.57;2.40;;;4.90;99.90;;;;;;3948497;30;20193;-94
2021/01/19 00:10:52;;;;;;;7.57;2.10;;;4.90;99.90;;;;;;3950010;30;20185;-92
2021/01/19 00:13:51;;;;;;;12.30;2.43;;;4.80;99.90;;;;;;3963675;30;20180;-94
2021/01/19 00:16:08;;;;;;;9.53;2.90;;;4.70;99.90;;;;;;3949118;30;20217;-94
2021/01/19 00:18:25;;;;;;;16.70;3.20;;;4.80;99.90;;;;;;3948433;30;20516;-94
2021/01/19 00:20:35;;;;;;;10.47;2.87;;;4.80;99.90;;;;;;3948109;30;20343;-93
2021/01/19 00:22:38;;;;;;;14.83;1.63;;;4.70;99.90;;;;;;3962922;30;20224;-94
2021/01/19 00:24:42;;;;;;;15.83;3.43;;;4.70;99.90;;;;;;3963503;30;20254;-94
2021/01/19 00:26:45;;;;;;;9.73;2.57;;;4.70;99.90;;;;;;3963784;30;20188;-94
2021/01/19 00:29:02;;;;;;;16.60;2.80;;;4.70;99.90;;;;;;3963361;30;20177;-92
2021/01/19 00:31:14;;;;;;;11.57;3.00;;;4.70;99.90;;;;;;3963212;30;20706;-94
2021/01/19 00:33:35;;;;;;;10.77;2.90;;;4.80;99.90;;;;;;3964350;30;20246;-94
2021/01/19 00:37:53;;;;;;;9.93;2.83;;;4.80;99.90;;;;;;3946398;30;20279;-92
2021/01/19 00:39:54;;;;;;;13.10;3.93;;;4.80;99.90;;;;;;3918465;30;20261;-91
2021/01/19 00:41:55;;;;;;;13.03;2.30;;;4.80;99.90;;;;;;3932984;30;20198;-93
2021/01/19 00:43:55;;;;;;;11.30;2.30;;;4.80;99.90;;;;;;3922125;30;20230;-93
2021/01/19 00:45:56;;;;;;;12.37;3.90;;;4.90;99.90;;;;;;3932887;30;20551;-91
2021/01/19 00:47:57;;;;;;;7.57;2.90;;;4.90;99.90;;;;;;3918103;30;20217;-92
2021/01/19 00:49:58;;;;;;;11.27;3.13;;;4.80;99.90;;;;;;3932570;30;20178;-93
2021/01/19 00:51:59;;;;;;;16.27;3.43;;;4.90;99.90;;;;;;3918080;30;20237;-93
2021/01/19 00:54:00;;;;;;;17.47;3.60;;;4.90;99.90;;;;;;3932548;30;20217;-93
2021/01/19 00:56:01;;;;;;;11.10;2.30;;;5.00;99.90;;;;;;3918350;30;20187;-95
2021/01/19 00:58:01;;;;;;;17.93;4.50;;;5.10;99.90;;;;;;3918347;30;20652;-92
2021/01/19 01:00:08;;;;;;;19.27;4.13;;;5.10;99.90;;;;;;3918894;30;20568;-94
2021/01/19 01:02:09;;;;;;;16.50;3.63;;;5.10;99.90;;;;;;3918048;30;20245;-92
2021/01/19 01:04:09;;;;;;;17.53;5.20;;;5.20;99.90;;;;;;3917971;30;20293;-94
2021/01/19 01:06:15;;;;;;;19.23;4.10;;;5.10;99.90;;;;;;3917844;30;20588;-93
2021/01/19 01:08:16;;;;;;;24.53;4.00;;;5.20;99.90;;;;;;3918009;30;20187;-93
2021/01/19 01:10:17;;;;;;;12.33;3.53;;;5.20;99.90;;;;;;3932726;30;20556;-93
2021/01/19 01:12:17;;;;;;;18.53;4.10;;;5.20;99.90;;;;;;3918039;30;20187;-93
2021/01/19 01:14:18;;;;;;;14.67;3.47;;;5.30;99.90;;;;;;3932539;30;20672;-94
2021/01/19 01:16:19;;;;;;;10.60;3.17;;;5.30;99.90;;;;;;3918018;30;20194;-93
2021/01/19 01:18:20;;;;;;;14.17;4.13;;;5.40;99.90;;;;;;3932488;30;20199;-92
2021/01/19 01:20:20;;;;;;;18.37;3.77;;;5.40;99.90;;;;;;3917981;30;20225;-93
2021/01/19 01:22:21;;;;;;;11.23;2.70;;;5.40;99.90;;;;;;3932631;30;20191;-93
2021/01/19 01:24:22;;;;;;;24.40;5.47;;;5.40;99.90;;;;;;3917869;30;20841;-93
2021/01/19 01:26:23;;;;;;;16.27;4.27;;;5.40;99.90;;;;;;3932482;30;20553;-93
2021/01/19 01:28:24;;;;;;;7.53;2.80;;;5.30;99.90;;;;;;3917932;30;20221;-94
2021/01/19 01:30:25;;;;;;;16.07;4.73;;;5.30;99.90;;;;;;3932315;30;20174;-93
2021/01/19 01:32:25;;;;;;;17.10;4.63;;;5.40;99.90;;;;;;3917817;30;20692;-91
2021/01/19 01:34:26;;;;;;;14.00;3.53;;;5.40;99.90;;;;;;3918833;30;20297;-94
2021/01/19 01:36:27;;;;;;;14.77;4.00;;;5.40;99.90;;;;;;3920640;30;20234;-93
2021/01/19 01:38:28;;;;;;;19.27;3.83;;;5.30;99.90;;;;;;3920704;30;20291;-92
2021/01/19 01:40:29;;;;;;;12.77;3.97;;;5.40;99.90;;;;;;3920600;30;20179;-93
2021/01/19 01:42:30;;;;;;;15.80;5.00;;;5.40;99.90;;;;;;3920728;30;20223;-92
2021/01/19 01:44:30;;;;;;;18.47;5.23;;;5.50;99.90;;;;;;3920394;30;20297;-92
2021/01/19 01:46:35;;;;;;;11.53;4.13;;;5.40;99.90;;;;;;3920802;30;20182;-95
2021/01/19 01:48:36;;;;;;;12.07;4.40;;;5.40;99.90;;;;;;3935036;30;20273;-93
2021/01/19 01:50:38;;;;;;;20.33;5.10;;;5.30;99.90;;;;;;3920472;30;20324;-91
2021/01/19 01:52:39;;;;;;;19.10;5.43;;;5.30;99.90;;;;;;3920572;30;20225;-92
2021/01/19 01:54:40;;;;;;;20.47;5.97;;;5.40;99.90;;;;;;3934984;30;20198;-94
2021/01/19 01:56:40;;;;;;;14.83;4.73;;;5.40;99.90;;;;;;3920621;30;20274;-92
2021/01/19 01:58:41;;;;;;;17.93;4.83;;;5.40;99.90;;;;;;3920513;30;20197;-91
2021/01/19 02:00:42;;;;;;;17.80;5.47;;;5.40;99.90;;;;;;3920550;30;20659;-92
2021/01/19 02:02:52;;;;;;;15.40;5.07;;;5.40;99.90;;;;;;3920566;30;20223;-92
2021/01/19 02:04:53;;;;;;;13.23;3.73;;;5.40;99.90;;;;;;3920385;30;20349;-93
2021/01/19 02:06:54;;;;;;;16.17;4.27;;;5.40;99.90;;;;;;3935135;30;20190;-92
2021/01/19 02:09:18;;;;;;;13.00;5.00;;;5.30;99.90;;;;;;3920433;30;20191;-94
2021/01/19 02:12:07;;;;;;;18.47;5.83;;;5.40;99.90;;;;;;3920418;30;20183;-92
2021/01/19 02:14:29;;;;;;;14.40;4.30;;;5.40;99.90;;;;;;3876506;30;20220;-93
2021/01/19 02:16:49;;;;;;;19.63;5.30;;;5.40;99.90;;;;;;3907714;30;20641;-95
2021/01/19 02:18:56;;;;;;;21.13;6.13;;;5.30;99.90;;;;;;3920479;30;20240;-95
2021/01/19 02:21:37;;;;;;;10.03;3.90;;;5.30;99.90;;;;;;3920112;30;20734;-92
2021/01/19 02:23:51;;;;;;;16.77;5.50;;;5.30;99.90;;;;;;3919418;30;20234;-93
2021/01/19 02:26:10;;;;;;;11.97;5.23;;;5.30;99.90;;;;;;3920200;30;20190;-92
2021/01/19 02:28:24;;;;;;;11.43;4.87;;;5.40;99.90;;;;;;3919923;30;20191;-92
2021/01/19 02:31:09;;;;;;;26.03;6.53;;;5.40;99.90;;;;;;3920025;30;20186;-94
2021/01/19 02:33:38;;;;;;;12.47;3.40;;;5.30;99.90;;;;;;3920417;30;20190;-92
2021/01/19 02:35:55;;;;;;;22.73;6.17;;;5.30;99.90;;;;;;3919760;30;20183;-92
2021/01/19 02:38:16;;;;;;;14.73;4.27;;;5.30;99.90;;;;;;3919759;30;20255;-91
2021/01/19 02:40:17;;;;;;;17.70;5.50;;;5.30;99.90;;;;;;3905585;30;20289;-93
2021/01/19 02:42:53;;;;;;;16.23;5.27;;;5.30;99.90;;;;;;3919925;30;20191;-93
2021/01/19 02:44:55;;;;;;;14.13;4.80;;;5.30;99.90;;;;;;3919539;30;20302;-91
2021/01/19 02:46:58;;;;;;;15.83;4.70;;;5.30;99.90;;;;;;3919059;30;20179;-94
2021/01/19 02:48:59;;;;;;;12.47;4.40;;;5.30;99.90;;;;;;3919834;30;20260;-93
2021/01/19 02:51:00;;;;;;;16.50;5.67;;;5.40;99.90;;;;;;3919570;30;20179;-92
2021/01/19 02:53:03;;;;;;;24.70;5.67;;;5.40;99.90;;;;;;3920041;30;20225;-93
2021/01/19 02:55:05;;;;;;;15.70;4.80;;;5.30;99.90;;;;;;3919470;30;20211;-92
2021/01/19 02:57:34;;;;;;;20.20;6.07;;;5.30;99.90;;;;;;3919368;30;20221;-92
2021/01/19 02:59:40;;;;;;;12.17;3.80;;;5.40;99.90;;;;;;3919472;30;20818;-93
2021/01/19 03:01:52;;;;;;;19.37;4.90;;;5.30;99.90;;;;;;3919584;30;20280;-93
2021/01/19 03:03:53;;;;;;;11.23;4.00;;;5.30;99.90;;;;;;3919259;30;20230;-93
2021/01/19 03:05:55;;;;;;;18.03;5.70;;;5.30;99.90;;;;;;3934137;30;20186;-93
2021/01/19 03:07:57;;;;;;;12.47;5.00;;;5.40;99.90;;;;;;3934066;30;20201;-93
2021/01/19 03:10:01;;;;;;;18.17;5.17;;;5.40;99.90;;;;;;3919406;30;20218;-94
2021/01/19 03:12:03;;;;;;;16.70;5.43;;;5.40;99.90;;;;;;3919318;30;20194;-92
2021/01/19 03:14:04;;;;;;;15.07;3.67;;;5.40;99.90;;;;;;3919344;30;20568;-93
2021/01/19 03:16:13;;;;;;;14.20;4.57;;;5.40;99.90;;;;;;3919544;30;20238;-95
2021/01/19 03:18:15;;;;;;;10.63;3.90;;;5.40;99.90;;;;;;3919236;30;20188;-92
2021/01/19 03:20:16;;;;;;;14.87;5.37;;;5.40;99.90;;;;;;3919624;30;20179;-93
2021/01/19 03:22:17;;;;;;;7.30;3.10;;;5.50;99.90;;;;;;3919206;30;20659;-92
2021/01/19 03:24:18;;;;;;;10.50;3.50;;;5.40;99.90;;;;;;3919479;30;20214;-93
2021/01/19 03:26:18;;;;;;;14.30;4.57;;;5.40;99.90;;;;;;3919203;30;20179;-94
2021/01/19 03:28:19;;;;;;;14.67;4.47;;;5.40;99.90;;;;;;3919274;30;20633;-94
2021/01/19 03:30:20;;;;;;;16.03;4.53;;;5.50;99.90;;;;;;3919258;30;20285;-94
2021/01/19 03:32:21;;;;;;;10.00;3.63;;;5.50;99.90;;;;;;3919736;30;20239;-95
2021/01/19 03:34:22;;;;;;;12.27;4.27;;;5.50;99.90;;;;;;3933563;30;20572;-94
2021/01/19 03:36:22;;;;;;;15.03;4.50;;;5.60;99.90;;;;;;3919286;30;20245;-92
2021/01/19 03:38:23;;;;;;;13.40;4.17;;;5.50;99.90;;;;;;3919177;30;20223;-93
2021/01/19 03:40:24;;;;;;;9.47;3.90;;;5.60;99.90;;;;;;3918828;30;20192;-94
2021/01/19 03:42:25;;;;;;;11.00;3.33;;;5.70;99.90;;;;;;3919430;30;20546;-93
2021/01/19 03:44:25;;;;;;;13.10;3.67;;;5.70;99.90;;;;;;3919064;30;20211;-93
2021/01/19 03:46:26;;;;;;;14.73;3.73;;;5.70;99.90;;;;;;3920052;30;20172;-93
2021/01/19 03:48:27;;;;;;;11.03;3.33;;;5.70;99.90;;;;;;3919082;30;20282;-93
2021/01/19 03:50:28;;;;;;;13.03;3.57;;;5.60;99.90;;;;;;3919021;30;20179;-93
2021/01/19 03:52:29;;;;;;;9.27;2.80;;;5.70;99.90;;;;;;3933695;30;20189;-92
2021/01/19 03:54:30;;;;;;;6.80;2.43;;;5.70;99.90;;;;;;3933677;30;20241;-94
2021/01/19 03:56:30;;;;;;;8.73;3.00;;;5.70;99.90;;;;;;3918841;30;20277;-91
2021/01/19 03:58:31;;;;;;;8.50;2.90;;;5.70;99.90;;;;;;3919000;30;20578;-94
2021/01/19 04:00:32;;;;;;;14.30;3.63;;;5.70;99.90;;;;;;3918953;30;20231;-92
2021/01/19 04:02:32;;;;;;;12.93;2.97;;;5.70;99.90;;;;;;3918833;30;20224;-92
2021/01/19 04:04:34;;;;;;;13.13;2.83;;;5.70;99.90;;;;;;3933112;30;20300;-93
2021/01/19 04:06:35;;;;;;;15.37;4.40;;;5.70;99.90;;;;;;3918801;30;20187;-94
2021/01/19 04:08:37;;;;;;;15.57;4.40;;;5.80;99.90;;;;;;3933429;30;20659;-93
2021/01/19 04:10:40;;;;;;;6.60;2.73;;;5.80;99.90;;;;;;3919395;30;20179;-94
2021/01/19 04:12:43;;;;;;;12.10;2.93;;;5.80;99.90;;;;;;3918890;30;20190;-93
2021/01/19 04:14:44;;;;;;;9.03;2.20;;;5.80;99.90;;;;;;3918975;30;20210;-93
2021/01/19 04:16:45;;;;;;;8.80;2.13;;;5.80;99.90;;;;;;3933003;30;20170;-91
2021/01/19 04:18:46;;;;;;;10.60;2.93;;;5.90;99.90;;;;;;3918994;30;20222;-91
2021/01/19 04:20:46;;;;;;;8.93;1.90;;;5.90;99.90;;;;;;3918652;30;20179;-93
2021/01/19 04:22:47;;;;;;;14.13;3.40;;;5.90;99.90;;;;;;3918676;30;20215;-92
2021/01/19 04:24:48;;;;;;;9.87;2.73;;;5.80;99.90;;;;;;3932999;30;20218;-92
2021/01/19 04:26:48;;;;;;;15.63;3.67;;;5.80;99.90;;;;;;3918922;30;20175;-93
2021/01/19 04:28:49;;;;;;;10.90;2.97;;;5.90;99.90;;;;;;3918688;30;20187;-94
2021/01/19 04:30:50;;;;;;;10.67;2.67;;;5.90;99.90;;;;;;3919646;30;20316;-93
2021/01/19 04:32:50;;;;;;;17.03;3.53;;;6.00;99.90;;;;;;3919008;30;20183;-92
2021/01/19 04:34:51;;;;;;;10.70;3.30;;;5.90;99.90;;;;;;3918426;30;20269;-93
2021/01/19 04:38:55;;;;;;;4.20;2.00;;;6.00;99.90;;;;;;3918994;30;20731;-94
2021/01/19 04:40:57;;;;;;;11.70;2.63;;;5.90;99.90;;;;;;3918724;30;20184;-92
2021/01/19 04:42:58;;;;;;;14.57;3.17;;;5.90;99.90;;;;;;3933556;30;20218;-91
2021/01/19 04:45:01;;;;;;;8.00;2.30;;;6.00;99.90;;;;;;3918704;30;20207;-93
2021/01/19 04:47:02;;;;;;;5.20;1.43;;;6.00;99.90;;;;;;3918219;30;20195;-93
2021/01/19 04:49:04;;;;;;;12.33;2.30;;;6.00;99.90;;;;;;3918836;30;20679;-90
2021/01/19 04:51:10;;;;;;;9.43;2.33;;;5.90;99.90;;;;;;3918224;30;20175;-94
2021/01/19 04:53:14;;;;;;;12.90;2.33;;;5.90;99.90;;;;;;3918931;30;20193;-92
2021/01/19 04:55:25;;;;;;;13.80;2.73;;;5.90;99.90;;;;;;3918223;30;20202;-93
2021/01/19 04:57:30;;;;;;;17.37;3.10;;;5.90;99.90;;;;;;3918286;30;20194;-92
2021/01/19 04:59:38;;;;;;;11.77;2.73;;;5.90;99.90;;;;;;3919192;30;20183;-93
2021/01/19 05:02:15;;;;;;;14.00;2.60;;;6.00;99.90;;;;;;3918573;30;20182;-91
2021/01/19 05:04:19;;;;;;;13.83;2.27;;;5.90;99.90;;;;;;3918602;30;20276;-93
2021/01/19 05:07:01;;;;;;;19.07;2.57;;;5.90;99.90;;;;;;3919009;30;20606;-93
2021/01/19 05:09:08;;;;;;;4.93;1.73;;;5.90;99.90;;;;;;3876898;30;20204;-94
2021/01/19 05:11:22;;;;;;;9.83;2.90;;;5.80;99.90;;;;;;3922297;30;20174;-94
2021/01/19 05:13:51;;;;;;;10.23;2.03;;;5.90;99.90;;;;;;3921048;30;20198;-93
2021/01/19 05:15:53;;;;;;;9.57;1.83;;;5.80;99.90;;;;;;3922156;30;20315;-93
2021/01/19 05:17:56;;;;;;;9.60;2.03;;;5.80;99.90;;;;;;3936273;30;20258;-93
2021/01/19 05:19:59;;;;;;;8.00;2.20;;;5.80;99.90;;;;;;3922222;30;20183;-92
2021/01/19 05:22:00;;;;;;;7.37;2.23;;;5.80;99.90;;;;;;3936165;30;20178;-95
2021/01/19 05:24:01;;;;;;;5.73;1.77;;;5.80;99.90;;;;;;3921037;30;20599;-94
2021/01/19 05:26:04;;;;;;;12.13;2.30;;;5.80;99.90;;;;;;3920993;30;20183;-93
2021/01/19 05:28:05;;;;;;;14.20;2.30;;;5.80;99.90;;;;;;3920840;30;20191;-92
2021/01/19 05:30:07;;;;;;;11.43;2.90;;;5.80;99.90;;;;;;3921291;30;20171;-93
2021/01/19 05:32:08;;;;;;;7.53;2.37;;;5.80;99.90;;;;;;3921678;30;20191;-93
2021/01/19 05:34:11;;;;;;;9.67;2.10;;;5.80;99.90;;;;;;3921307;30;20211;-93
2021/01/19 05:36:12;;;;;;;9.63;2.13;;;5.90;99.90;;;;;;3921063;30;20248;-92
2021/01/19 05:38:13;;;;;;;9.17;2.33;;;5.80;99.90;;;;;;3936935;30;20190;-92
2021/01/19 05:40:14;;;;;;;7.40;1.70;;;5.90;99.90;;;;;;3921582;30;20285;-92
2021/01/19 05:42:23;;;;;;;7.57;2.20;;;5.90;99.90;;;;;;3920903;30;20187;-93
2021/01/19 05:44:31;;;;;;;9.50;2.03;;;5.90;99.90;;;;;;3935399;30;20217;-92
2021/01/19 05:46:32;;;;;;;8.97;1.53;;;5.80;99.90;;;;;;3935327;30;20193;-92
2021/01/19 05:48:41;;;;;;;9.07;1.90;;;5.80;99.90;;;;;;3935223;30;20555;-92
2021/01/19 05:50:42;;;;;;;10.83;1.97;;;5.80;99.90;;;;;;3921402;30;20182;-92
2021/01/19 05:52:46;;;;;;;14.40;2.27;;;5.80;99.90;;;;;;3920523;30;20277;-93
2021/01/19 05:54:48;;;;;;;12.23;2.03;;;5.90;99.90;;;;;;3920727;30;20229;-93
2021/01/19 05:56:50;;;;;;;8.33;2.07;;;5.90;99.90;;;;;;3921906;30;20256;-93
2021/01/19 05:58:50;;;;;;;13.90;2.83;;;5.90;99.90;;;;;;3920605;30;20198;-94
2021/01/19 06:00:52;;;;;;;4.80;1.67;;;5.90;99.90;;;;;;3935320;30;20632;-92
2021/01/19 06:02:55;;;;;;;5.93;1.70;;;5.90;99.90;;;;;;3920560;30;20229;-93
2021/01/19 06:05:10;;;;;;;15.27;2.47;;;5.90;99.90;;;;;;3920502;30;20289;-94
2021/01/19 06:07:13;;;;;;;7.07;1.60;;;5.90;99.90;;;;;;3920939;30;20253;-93
2021/01/19 06:09:13;;;;;;;13.63;2.10;;;5.80;99.90;;;;;;3920484;30;20223;-93
2021/01/19 06:11:14;;;;;;;11.27;1.87;;;5.90;99.90;;;;;;3935474;30;20182;-94
2021/01/19 06:13:17;;;;;;;12.43;1.60;;;5.90;99.90;;;;;;3920232;30;20525;-93
2021/01/19 06:15:27;;;;;;;7.70;1.93;;;5.90;99.90;;;;;;3920259;30;20214;-93
2021/01/19 06:17:28;;;;;;;10.13;1.87;;;5.90;99.90;;;;;;3920616;30;20189;-95
2021/01/19 06:19:29;;;;;;;10.97;1.93;;;6.00;99.90;;;;;;3935092;30;20186;-93
2021/01/19 06:21:34;;;;;;;5.33;0.70;;;6.00;99.90;;;;;;3920252;30;20711;-91
2021/01/19 06:23:45;;;;;;;13.30;1.47;;;5.90;99.90;;;;;;3920492;30;20206;-94
2021/01/19 06:25:46;;;;;;;8.40;1.73;;;5.90;99.90;;;;;;3920516;30;20201;-92
2021/01/19 06:27:47;;;;;;;10.10;1.80;;;6.00;99.90;;;;;;3920470;30;20597;-92
2021/01/19 06:29:51;;;;;;;5.20;1.33;;;5.90;99.90;;;;;;3920857;30;20187;-93
2021/01/19 06:31:56;;;;;;;2.93;0.77;;;5.90;99.90;;;;;;3934802;30;20190;-94
2021/01/19 06:33:56;;;;;;;3.87;0.70;;;5.90;99.90;;;;;;3920288;30;20284;-95
2021/01/19 06:35:57;;;;;;;5.60;1.50;;;5.90;99.90;;;;;;3935333;30;20194;-93
2021/01/19 06:38:05;;;;;;;10.07;2.47;;;5.90;99.90;;;;;;3920193;30;20561;-93
2021/01/19 06:40:11;;;;;;;10.27;1.60;;;5.90;99.90;;;;;;3920272;30;20182;-94
2021/01/19 06:42:16;;;;;;;5.47;1.50;;;6.00;99.90;;;;;;3920004;30;20264;-93
2021/01/19 06:44:20;;;;;;;7.10;1.37;;;6.00;99.90;;;;;;3920281;30;20225;-91
2021/01/19 06:46:21;;;;;;;20.83;1.40;;;5.90;99.90;;;;;;3920447;30;20534;-92
2021/01/19 06:48:22;;;;;;;10.67;1.43;;;5.90;99.90;;;;;;3919647;30;20183;-94
2021/01/19 06:50:28;;;;;;;3.03;1.47;;;5.90;99.90;;;;;;3934461;30;20179;-91
2021/01/19 06:52:40;;;;;;;5.20;1.20;;;5.90;99.90;;;;;;3920226;30;20182;-93
2021/01/19 06:54:54;;;;;;;5.80;0.83;;;6.00;99.90;;;;;;3920042;30;20203;-93
2021/01/19 06:59:35;;;;;;;5.77;1.37;;;6.00;99.90;;;;;;3934984;30;20250;-94
2021/01/19 07:01:55;;;;;;;8.90;1.10;;;6.00;99.90;;;;;;3909654;30;20188;-95
2021/01/19 07:04:25;;;;;;;9.60;2.37;;;6.00;99.90;;;;;;3890908;30;20344;-94
2021/01/19 07:06:58;;;;;;;6.53;1.63;;;6.00;99.90;;;;;;3905515;30;20238;-94
2021/01/19 07:09:23;;;;;;;5.77;1.03;;;6.00;99.90;;;;;;3907388;30;20192;-94
2021/01/19 07:11:45;;;;;;;10.13;2.00;;;6.10;99.90;;;;;;3909157;30;20596;-94
2021/01/19 07:13:49;;;;;;;3.33;1.03;;;6.10;99.90;;;;;;3906054;30;20219;-96
2021/01/19 07:16:13;;;;;;;3.13;1.07;;;6.10;99.90;;;;;;3908779;30;20172;-96
2021/01/19 07:18:48;;;;;;;3.70;0.90;;;6.10;99.90;;;;;;3906259;30;20188;-94
2021/01/19 07:21:21;;;;;;;11.93;1.90;;;6.10;99.90;;;;;;3921956;30;20186;-94
2021/01/19 07:23:31;;;;;;;2.17;0.90;;;6.00;99.90;;;;;;3902279;30;20238;-94
2021/01/19 07:25:37;;;;;;;4.80;1.23;;;6.10;99.90;;;;;;3908690;30;20702;-93
2021/01/19 07:27:39;;;;;;;4.20;1.37;;;6.20;99.90;;;;;;3909541;30;20168;-93
2021/01/19 07:29:41;;;;;;;8.43;1.20;;;6.10;99.90;;;;;;3922333;30;20270;-94
2021/01/19 07:31:42;;;;;;;5.27;1.27;;;6.10;99.90;;;;;;3907114;30;20190;-93
2021/01/19 07:33:53;;;;;;;3.10;1.20;;;6.20;99.90;;;;;;3921614;30;20207;-93
2021/01/19 07:35:57;;;;;;;9.10;1.40;;;6.20;99.90;;;;;;3955123;24;20255;-95
2021/01/19 07:38:08;;;;;;;3.20;1.00;;;6.20;99.90;;;;;;3983764;29;20191;-95
2021/01/19 07:40:17;;;;;;;9.90;1.60;;;6.20;99.90;;;;;;3965542;30;20233;-95
2021/01/19 07:42:22;;;;;;;4.10;1.20;;;6.20;99.90;;;;;;3981944;29;20184;-94
2021/01/19 07:44:24;;;;;;;14.43;1.50;;;6.20;99.90;;;;;;3964570;30;20213;-94
2021/01/19 07:46:32;;;;;;;8.20;1.53;;;6.20;99.90;;;;;;3995693;24;20236;-95
2021/01/19 07:48:37;;;;;;;3.73;1.43;;;6.30;99.90;;;;;;3951515;30;20189;-95
2021/01/19 07:52:53;;;;;;;5.47;1.10;;;6.30;99.90;;;;;;3965023;29;20581;-94
2021/01/19 07:54:55;;;;;;;2.50;0.80;;;6.30;99.90;;;;;;3964361;30;20218;-95
2021/01/19 07:57:26;;;;;;;3.93;0.97;;;6.30;99.90;;;;;;3961108;24;20246;-96
2021/01/19 07:59:33;;;;;;;5.67;1.83;;;6.40;99.90;;;;;;3967177;30;20301;-94
2021/01/19 08:01:35;;;;;;;4.23;1.00;;;6.50;99.90;;;;;;3952321;30;20185;-96
2021/01/19 08:03:37;;;;;;;7.07;1.40;;;6.60;99.90;;;;;;3965543;30;20701;-94
2021/01/19 08:05:41;;;;;;;6.67;1.17;;;6.60;99.90;;;;;;3954342;24;20230;-94
2021/01/19 08:07:49;;;;;;;3.97;1.47;;;6.60;99.90;;;;;;3936240;30;20182;-94
2021/01/19 08:09:55;;;;;;;4.90;1.00;;;6.60;99.90;;;;;;3936325;30;20206;-95
2021/01/19 08:12:08;;;;;;;4.80;1.40;;;6.60;99.90;;;;;;3933560;30;20190;-92
2021/01/19 08:14:10;;;;;;;5.00;0.90;;;6.60;99.90;;;;;;3934585;30;20667;-96
2021/01/19 08:16:33;;;;;;;5.17;1.53;;;6.70;99.90;;;;;;3937401;30;20183;-96
2021/01/19 08:18:40;;;;;;;5.40;1.47;;;6.70;99.90;;;;;;3935466;30;20182;-95
2021/01/19 08:20:41;;;;;;;2.40;1.00;;;6.80;99.90;;;;;;3923358;30;20190;-95
2021/01/19 08:22:58;;;;;;;;;;;;;;;;;;;;;
2021/01/19 08:25:33;;;;;;;2.43;0.67;;;6.80;99.90;;;;;;3954900;30;20224;-96
2021/01/19 08:27:38;;;;;;;6.03;1.50;;;6.80;99.90;;;;;;3936353;30;20635;-96
2021/01/19 08:29:47;;;;;;;3.53;1.20;;;6.80;99.90;;;;;;3936288;30;20186;-96
2021/01/19 08:32:00;;;;;;;5.30;1.70;;;6.80;99.90;;;;;;3934158;30;20276;-95
2021/01/19 08:34:02;;;;;;;6.50;1.10;;;6.90;99.90;;;;;;3920551;30;20259;-95
2021/01/19 08:36:05;;;;;;;4.73;1.40;;;6.90;99.90;;;;;;3935512;30;20189;-95
2021/01/19 08:38:13;;;;;;;5.50;1.20;;;7.00;99.90;;;;;;3935898;30;20194;-96
2021/01/19 08:40:30;;;;;;;3.77;1.47;;;7.00;99.90;;;;;;3948721;30;20216;-94
2021/01/19 08:42:32;;;;;;;4.93;1.43;;;7.10;99.90;;;;;;3919586;30;20179;-95
2021/01/19 08:44:36;;;;;;;4.17;0.90;;;7.10;99.90;;;;;;3934499;30;20675;-94
2021/01/19 08:46:43;;;;;;;6.37;1.03;;;7.20;99.90;;;;;;3934743;30;20189;-93
2021/01/19 08:48:49;;;;;;;6.17;1.00;;;7.20;99.90;;;;;;3934304;30;20261;-94
2021/01/19 08:50:53;;;;;;;3.50;1.40;;;7.30;99.90;;;;;;3935316;30;20183;-95
2021/01/19 08:52:54;;;;;;;4.07;1.30;;;7.40;99.90;;;;;;3934119;30;20194;-94
2021/01/19 08:54:57;;;;;;;5.00;1.30;;;7.40;99.90;;;;;;3935257;30;20205;-95
2021/01/19 08:57:03;;;;;;;5.67;1.50;;;7.30;99.90;;;;;;3934359;30;20169;-95
2021/01/19 08:59:04;;;;;;;3.93;1.27;;;7.40;99.90;;;;;;3937347;30;20190;-94
2021/01/19 09:01:05;;;;;;;5.40;1.43;;;7.50;99.90;;;;;;3947498;30;20646;-95
2021/01/19 09:03:23;;;;;;;5.23;1.23;;;7.60;99.90;;;;;;3935718;30;20245;-93
2021/01/19 09:05:33;;;;;;;3.03;1.30;;;7.70;99.90;;;;;;3933204;30;20236;-95
2021/01/19 09:07:33;;;;;;;1.90;1.20;;;7.70;99.90;;;;;;3934484;30;20182;-95
2021/01/19 09:09:49;;;;;;;3.87;1.20;;;7.80;99.90;;;;;;3919940;30;20315;-95
2021/01/19 09:11:57;;;;;;;3.60;1.20;;;7.90;99.90;;;;;;3935096;30;20190;-95
2021/01/19 09:14:08;;;;;;;3.87;1.30;;;7.80;99.90;;;;;;3951983;30;20582;-94
2021/01/19 09:16:42;;;;;;;3.90;1.20;;;7.70;99.90;;;;;;3934822;30;20174;-94
2021/01/19 09:18:56;;;;;;;4.97;1.47;;;7.70;99.90;;;;;;3915057;30;20198;-95
2021/01/19 09:21:10;;;;;;;4.30;1.70;;;7.80;99.90;;;;;;3934300;30;20174;-93
2021/01/19 09:23:17;;;;;;;3.67;1.20;;;8.00;99.90;;;;;;3935843;30;20222;-96
2021/01/19 09:25:34;;;;;;;3.70;1.40;;;8.00;99.90;;;;;;3920480;30;20202;-95
2021/01/19 09:28:09;;;;;;;5.50;1.50;;;7.90;99.90;;;;;;3939261;30;20202;-95
2021/01/19 09:30:13;;;;;;;4.00;1.10;;;7.90;99.90;;;;;;3936856;30;20202;-94
2021/01/19 09:33:23;;;;;;;1.87;0.73;;;7.90;99.90;;;;;;3940167;30;20214;-95
2021/01/19 09:35:41;;;;;;;3.20;1.10;;;7.80;99.90;;;;;;3957416;30;20178;-96
2021/01/19 09:37:59;;;;;;;;;;;;;;;;;;;;;
2021/01/19 09:44:11;;;;;;;8.83;3.00;;;7.70;99.90;;;;;;4078733;24;20257;-95
2021/01/19 09:47:13;;;;;;;5.27;1.40;;;7.80;99.90;;;;;;3958542;30;20189;-94
2021/01/19 09:49:33;;;;;;;3.37;1.13;;;7.90;99.90;;;;;;3943292;30;20198;-96
2021/01/19 09:54:13;;;;;;;4.43;1.60;;;8.00;99.90;;;;;;4011761;24;20245;-95
2021/01/19 09:56:38;;;;;;;1.50;1.03;;;8.00;99.90;;;;;;3931819;30;20178;-95
2021/01/19 09:59:08;;;;;;;4.27;1.60;;;8.20;99.90;;;;;;3935072;30;20182;-94
2021/01/19 10:01:25;;;;;;;2.90;1.30;;;8.30;99.90;;;;;;3939106;30;20166;-96
2021/01/19 10:03:42;;;;;;;7.10;4.07;;;8.10;99.90;;;;;;3866647;24;2880838;-95
2021/01/19 10:06:02;;;;;;;4.60;2.70;;;8.10;99.90;;;;;;4031062;24;20233;-95
2021/01/19 10:08:07;;;;;;;1.90;0.93;;;8.20;99.90;;;;;;3954800;30;20259;-96
2021/01/19 10:10:19;;;;;;;7.63;3.23;;;8.10;99.90;;;;;;3944204;30;20223;-95
2021/01/19 10:12:27;;;;;;;5.27;2.10;;;8.10;99.90;;;;;;3940356;30;20284;-94
2021/01/19 10:14:44;;;;;;;3.27;1.33;;;8.20;99.90;;;;;;3973814;24;20228;-95
2021/01/19 10:17:08;;;;;;;2.67;2.03;;;8.30;99.90;;;;;;3955580;29;20213;-94
2021/01/19 10:19:23;;;;;;;4.47;1.60;;;8.30;99.90;;;;;;3972055;30;20191;-95
2021/01/19 10:29:24;;;;;;;5.83;2.93;;;8.40;99.90;;;;;;4154888;24;20345;-95
2021/01/19 10:48:03;;;;;;;4.37;2.57;;;8.50;99.90;;;;;;3968031;30;20212;-95
2021/01/19 10:50:24;;;;;;;5.73;2.03;;;8.60;99.90;;;;;;3939857;30;20675;-94
2021/01/19 10:52:26;;;;;;;4.40;1.97;;;8.50;99.90;;;;;;3972550;24;20241;-95
2021/01/19 10:54:28;;;;;;;3.17;1.70;;;8.60;99.90;;;;;;3970196;24;20241;-94
2021/01/19 10:56:29;;;;;;;4.23;1.80;;;8.60;99.90;;;;;;3953117;24;20732;-94
2021/01/19 10:58:30;;;;;;;3.63;1.60;;;8.60;99.90;;;;;;3951435;30;20185;-94
2021/01/19 11:00:33;;;;;;;3.77;1.63;;;8.70;99.90;;;;;;3954855;30;20182;-94
2021/01/19 11:02:39;;;;;;;3.33;1.80;;;8.60;99.90;;;;;;3949889;30;20197;-96
2021/01/19 11:04:58;;;;;;;2.00;1.40;;;8.50;99.90;;;;;;3967362;29;20225;-96
2021/01/19 11:07:04;;;;;;;2.90;1.60;;;8.50;99.90;;;;;;3965118;29;20272;-95
2021/01/19 11:09:43;;;;;;;2.67;1.67;;;8.60;99.90;;;;;;3971014;29;20197;-94
2021/01/19 11:11:47;;;;;;;3.70;2.10;;;8.70;99.90;;;;;;3987226;29;20652;-94
2021/01/19 11:13:57;;;;;;;2.45;1.80;;;8.70;99.90;;;;;;3973587;24;20278;-94
2021/01/19 11:15:58;;;;;;;3.90;1.87;;;8.60;99.90;;;;;;3972856;24;20421;-94
2021/01/19 11:18:07;;;;;;;4.10;2.30;;;8.70;99.90;;;;;;3952079;30;20280;-96
2021/01/19 11:20:33;;;;;;;3.53;1.77;;;8.60;99.90;;;;;;3953073;30;20173;-94
2021/01/19 11:22:46;;;;;;;3.13;2.00;;;8.60;99.90;;;;;;3957523;30;20493;-95
2021/01/19 11:29:51;;;;;;;2.13;1.80;;;8.80;99.90;;;;;;4095897;24;20605;-95
2021/01/19 11:31:56;;;;;;;4.13;2.00;;;8.70;99.90;;;;;;3926616;30;20281;-95
2021/01/19 11:34:14;;;;;;;9.00;2.17;;;8.70;99.90;;;;;;3942629;30;20559;-95
2021/01/19 11:36:34;;;;;;;2.40;1.80;;;8.70;99.90;;;;;;3925730;30;20601;-96
2021/01/19 11:39:06;;;;;;;;;;;;;;;;;;;;;
2021/01/19 11:41:28;;;;;;;5.67;4.00;;;8.80;99.90;;;;;;3957056;30;20168;-95
2021/01/19 11:44:00;;;;;;;3.00;2.30;;;8.80;99.90;;;;;;3940302;30;20222;-95
2021/01/19 11:46:06;;;;;;;2.63;2.00;;;8.70;99.90;;;;;;3926729;30;20655;-95
2021/01/19 11:48:17;;;;;;;6.40;3.23;;;8.80;99.90;;;;;;3945068;30;20171;-95
2021/01/19 11:50:24;;;;;;;6.97;2.40;;;8.80;99.90;;;;;;3944367;24;20232;-95
2021/01/19 11:52:24;;;;;;;3.83;2.37;;;8.80;99.90;;;;;;3953186;30;20185;-94
2021/01/19 11:54:40;;;;;;;4.77;2.50;;;8.90;99.90;;;;;;3954715;29;20205;-95
2021/01/19 11:56:52;;;;;;;3.90;2.07;;;8.90;99.90;;;;;;3956930;30;20215;-95
2021/01/19 11:59:08;;;;;;;4.70;2.70;;;8.90;99.90;;;;;;3955268;30;20197;-95